createdAt,value
2023-03-10T00:03:23.095Z,95087.50
2023-03-10T00:08:27.726Z,95079.59
2023-03-10T00:13:30.849Z,95084.13
2023-03-10T00:18:34.257Z,95083.66
2023-03-10T00:23:38.792Z,95075.53
2023-03-10T00:28:42.302Z,95054.66
2023-03-10T00:33:46.106Z,95050.75
2023-03-10T00:38:52.378Z,95040.38
2023-03-10T00:43:55.659Z,95029.50
2023-03-10T00:48:58.840Z,95012.25
2023-03-10T00:54:04.734Z,95005.69
2023-03-10T00:59:08.171Z,94996.44
2023-03-10T01:04:14.863Z,95005.75
2023-03-10T01:09:20.373Z,94972.13
2023-03-10T01:14:23.460Z,94944.06
2023-03-10T01:19:26.729Z,94942.63
2023-03-10T01:24:31.872Z,94929.44
2023-03-10T01:29:35.112Z,94902.34
2023-03-10T01:34:38.349Z,94894.50
2023-03-10T01:39:43.292Z,94896.34
2023-03-10T01:45:08.603Z,94874.78
2023-03-10T01:50:16.185Z,94863.47
2023-03-10T01:55:24.672Z,94870.50
2023-03-10T02:00:30.517Z,94876.94
2023-03-10T02:05:34.972Z,94869.22
2023-03-10T02:10:40.510Z,94856.97
2023-03-10T02:15:43.823Z,94837.16
2023-03-10T02:20:56.699Z,94834.81
2023-03-10T02:26:09.354Z,94823.16
2023-03-10T02:31:14.972Z,94811.06
2023-03-10T02:36:20.508Z,94828.47
2023-03-10T02:41:29.875Z,94813.63
2023-03-10T02:46:35.039Z,94816.38
2023-03-10T02:51:41.952Z,94799.81
2023-03-10T02:56:48.782Z,94770.13
2023-03-10T03:01:53.919Z,94789.78
2023-03-10T03:06:57.184Z,94793.72
2023-03-10T03:12:01.477Z,94795.44
2023-03-10T03:17:06.496Z,94792.81
2023-03-10T03:22:09.833Z,94789.72
2023-03-10T03:27:13.462Z,94764.84
2023-03-10T03:32:18.233Z,94769.88
2023-03-10T03:37:21.435Z,94766.50
2023-03-10T03:42:24.879Z,94767.75
2023-03-10T03:47:31.560Z,94751.72
2023-03-10T03:52:35.502Z,94771.28
2023-03-10T03:57:39.632Z,94751.69
2023-03-10T04:02:44.772Z,94760.84
2023-03-10T04:07:50.101Z,94753.75
2023-03-10T04:12:55.045Z,94749.59
2023-03-10T04:18:01.538Z,94741.72
2023-03-10T04:23:05.447Z,94739.13
2023-03-10T04:28:12.053Z,94745.72
2023-03-10T04:33:16.973Z,94749.66
2023-03-10T04:38:23.166Z,94755.84
2023-03-10T04:43:27.327Z,94764.22
2023-03-10T04:48:33.163Z,94752.03
2023-03-10T04:53:37.808Z,94749.41
2023-03-10T04:58:41.339Z,94765.75
2023-03-10T05:03:46.492Z,94756.56
2023-03-10T05:08:50.680Z,94754.47
2023-03-10T05:13:56.533Z,94761.13
2023-03-10T05:19:03.331Z,94762.03
2023-03-10T05:24:09.878Z,94761.66
2023-03-10T05:29:14.018Z,94754.84
2023-03-10T05:34:27.108Z,94773.78
2023-03-10T05:39:33.968Z,94776.25
2023-03-10T05:44:41.269Z,94767.84
2023-03-10T05:49:46.589Z,94773.44
2023-03-10T05:54:50.679Z,94770.03
2023-03-10T05:59:54.196Z,94777.59
2023-03-10T06:04:59.136Z,94769.31
2023-03-10T06:10:02.496Z,94777.88
2023-03-10T06:15:06.603Z,94792.00
2023-03-10T06:20:12.164Z,94794.63
2023-03-10T06:25:15.422Z,94789.63
2023-03-10T06:30:18.893Z,94786.97
2023-03-10T06:35:23.445Z,94799.72
2023-03-10T06:40:26.737Z,94792.66
2023-03-10T06:45:30.227Z,94797.22
2023-03-10T06:50:34.986Z,94799.19
2023-03-10T06:55:38.606Z,94797.00
2023-03-10T07:00:41.776Z,94796.03
2023-03-10T07:05:46.491Z,94812.44
2023-03-10T07:10:51.710Z,94813.53
2023-03-10T07:15:55.049Z,94807.59
2023-03-10T07:20:59.987Z,94805.19
2023-03-10T07:26:03.767Z,94806.97
2023-03-10T07:31:08.260Z,94801.72
2023-03-10T07:36:14.839Z,94803.84
2023-03-10T07:41:21.491Z,94794.97
2023-03-10T07:46:24.868Z,94796.66
2023-03-10T07:51:29.718Z,94799.47
2023-03-10T07:56:33.004Z,94797.81
2023-03-10T08:01:36.994Z,94801.31
2023-03-10T08:06:41.800Z,94793.94
2023-03-10T08:11:45.036Z,94809.75
2023-03-10T08:16:48.293Z,94800.91
2023-03-10T08:21:55.399Z,94792.28
2023-03-10T08:26:58.679Z,94794.56
2023-03-10T08:32:01.957Z,94805.47
2023-03-10T08:37:07.063Z,94802.09
2023-03-10T08:42:12.349Z,94782.25
2023-03-10T08:47:15.578Z,94781.16
2023-03-10T08:52:19.994Z,94773.50
2023-03-10T08:57:23.327Z,94782.25
2023-03-10T09:02:29.601Z,94781.13
2023-03-10T09:07:34.321Z,94783.13
2023-03-10T09:12:39.188Z,94784.53
2023-03-10T09:17:42.640Z,94787.16
2023-03-10T09:22:47.493Z,94781.41
2023-03-10T09:27:50.896Z,94793.94
2023-03-10T09:32:55.757Z,94798.53
2023-03-10T09:38:00.472Z,94786.44
2023-03-10T09:43:05.693Z,94801.56
2023-03-10T09:48:27.168Z,94797.28
2023-03-10T09:53:45.225Z,94799.13
2023-03-10T09:58:52.158Z,94807.13
2023-03-10T10:03:57.756Z,94815.84
2023-03-10T10:09:05.328Z,94820.09
2023-03-10T10:14:29.313Z,94802.38
2023-03-10T10:19:36.997Z,94818.69
2023-03-10T10:24:42.093Z,94821.69
2023-03-10T10:29:47.172Z,94818.59
2023-03-10T10:34:50.724Z,94804.47
2023-03-10T10:39:57.153Z,94818.06
2023-03-10T10:45:02.233Z,94802.59
2023-03-10T10:50:19.741Z,94806.09
2023-03-10T10:55:30.962Z,94794.47
2023-03-10T11:00:37.030Z,94793.13
2023-03-10T11:05:40.861Z,94789.03
2023-03-10T11:10:52.132Z,94792.28
2023-03-10T11:16:03.444Z,94803.44
2023-03-10T11:21:14.286Z,94808.91
2023-03-10T11:26:28.037Z,94817.88
2023-03-10T11:31:40.233Z,94804.31
2023-03-10T11:36:55.821Z,94801.28
2023-03-10T11:42:08.194Z,94804.03
2023-03-10T11:47:22.573Z,94786.03
2023-03-10T11:52:27.412Z,94779.25
2023-03-10T11:57:37.434Z,94780.06
2023-03-10T12:02:47.623Z,94777.75
2023-03-10T12:07:53.358Z,94787.81
2023-03-10T12:12:58.558Z,94786.88
2023-03-10T12:18:03.916Z,94788.78
2023-03-10T12:23:31.863Z,94774.69
2023-03-10T12:28:36.501Z,94775.09
2023-03-10T12:33:53.523Z,94758.81
2023-03-10T12:38:57.880Z,94757.47
2023-03-10T12:44:03.453Z,94757.91
2023-03-10T12:49:20.148Z,94751.63
2023-03-10T12:54:48.586Z,94754.69
2023-03-10T13:00:01.129Z,94760.09
2023-03-10T13:05:07.983Z,94747.88
2023-03-10T13:10:19.396Z,94736.03
2023-03-10T13:15:27.334Z,94712.91
2023-03-10T13:20:30.674Z,94726.13
2023-03-10T13:25:36.786Z,94714.75
2023-03-10T13:30:41.476Z,94730.78
2023-03-10T13:35:47.387Z,94723.72
2023-03-10T13:41:00.173Z,94714.03
2023-03-10T13:46:10.039Z,94705.94
2023-03-10T13:51:22.362Z,94704.19
2023-03-10T13:56:27.632Z,94704.00
2023-03-10T14:01:36.009Z,94698.88
2023-03-10T14:06:39.359Z,94698.25
2023-03-10T14:11:45.153Z,94695.84
2023-03-10T14:16:53.453Z,94699.38
2023-03-10T14:22:01.934Z,94692.28
2023-03-10T14:27:11.810Z,94683.94
2023-03-10T14:32:16.468Z,94693.97
2023-03-10T14:37:20.400Z,94687.00
2023-03-10T14:42:30.268Z,94686.31
2023-03-10T14:47:35.589Z,94691.78
2023-03-10T14:52:39.154Z,94693.63
2023-03-10T14:57:44.249Z,94705.31
2023-03-10T15:02:49.672Z,94709.91
2023-03-10T15:07:53.222Z,94704.88
2023-03-10T15:12:56.542Z,94721.41
2023-03-10T15:18:01.438Z,94727.59
2023-03-10T15:23:04.700Z,94725.50
2023-03-10T15:28:08.216Z,94723.13
2023-03-10T15:33:12.895Z,94717.59
2023-03-10T15:38:16.817Z,94716.72
2023-03-10T15:43:20.502Z,94712.31
2023-03-10T15:48:25.271Z,94709.78
2023-03-10T15:53:28.535Z,94706.25
2023-03-10T15:58:31.847Z,94702.31
2023-03-10T16:03:37.509Z,94705.53
2023-03-10T16:08:41.887Z,94685.84
2023-03-10T16:13:46.830Z,94684.97
2023-03-10T16:18:52.953Z,94678.50
2023-03-10T16:23:56.220Z,94691.06
2023-03-10T16:28:59.534Z,94688.19
2023-03-10T16:34:04.107Z,94696.13
2023-03-10T16:39:08.893Z,94688.91
2023-03-10T16:44:15.338Z,94686.88
2023-03-10T16:49:20.375Z,94687.38
2023-03-10T16:54:24.122Z,94681.09
2023-03-10T16:59:27.501Z,94684.28
2023-03-10T17:04:32.079Z,94674.09
2023-03-10T17:09:36.705Z,94670.66
2023-03-10T17:14:40.664Z,94661.72
2023-03-10T17:19:45.826Z,94669.44
2023-03-10T17:24:54.207Z,94668.31
2023-03-10T17:29:57.561Z,94661.66
2023-03-10T17:35:02.478Z,94664.56
2023-03-10T17:40:09.394Z,94664.13
2023-03-10T17:45:13.363Z,94676.31
2023-03-10T17:50:18.460Z,94673.66
2023-03-10T17:55:21.818Z,94668.50
2023-03-10T18:00:25.882Z,94670.09
2023-03-10T18:05:30.519Z,94680.41
2023-03-10T18:10:34.540Z,94705.91
2023-03-10T18:15:39.410Z,94689.38
2023-03-10T18:20:44.076Z,94693.69
2023-03-10T18:25:48.018Z,94683.31
2023-03-10T18:30:53.537Z,94682.31
2023-03-10T18:36:02.522Z,94694.00
2023-03-10T18:41:05.942Z,94675.00
2023-03-10T18:46:09.456Z,94677.00
2023-03-10T18:51:14.688Z,94690.00
2023-03-10T18:56:18.105Z,94680.53
2023-03-10T19:01:21.738Z,94671.56
2023-03-10T19:06:30.889Z,94668.75
2023-03-10T19:11:35.903Z,94674.22
2023-03-10T19:16:40.878Z,94670.75
2023-03-10T19:21:45.887Z,94670.75
2023-03-10T19:26:49.765Z,94695.88
2023-03-10T19:31:53.044Z,94712.28
2023-03-10T19:36:58.024Z,94704.56
2023-03-10T19:42:01.743Z,94718.03
2023-03-10T19:47:05.130Z,94722.59
2023-03-10T19:52:10.299Z,94728.19
2023-03-10T19:57:14.678Z,94706.03
2023-03-10T20:02:19.224Z,94721.44
2023-03-10T20:07:23.916Z,94714.56
2023-03-10T20:12:27.678Z,94721.13
2023-03-10T20:17:31.005Z,94728.34
2023-03-10T20:22:37.089Z,94731.44
2023-03-10T20:27:41.491Z,94730.31
2023-03-10T20:32:45.481Z,94736.34
2023-03-10T20:37:50.369Z,94777.38
2023-03-10T20:42:55.521Z,94810.06
2023-03-10T20:47:59.234Z,94838.09
2023-03-10T20:53:04.444Z,94879.66
2023-03-10T20:58:07.778Z,94914.00
2023-03-10T21:03:11.515Z,94936.22
2023-03-10T21:08:16.108Z,94982.09
2023-03-10T21:13:19.536Z,94989.63
2023-03-10T21:18:22.931Z,95003.88
2023-03-10T21:23:27.472Z,95018.38
2023-03-10T21:28:31.125Z,95048.97
2023-03-10T21:33:35.246Z,95077.03
2023-03-10T21:38:40.090Z,95087.47
2023-03-10T21:43:43.231Z,95100.13
2023-03-10T21:48:46.438Z,95117.63
2023-03-10T21:53:51.935Z,95131.72
2023-03-10T21:58:55.096Z,95143.66
2023-03-10T22:03:58.359Z,95163.94
2023-03-10T22:09:03.967Z,95173.88
2023-03-10T22:14:07.466Z,95202.09
2023-03-10T22:19:10.571Z,95218.25
2023-03-10T22:24:15.205Z,95224.81
2023-03-10T22:29:18.554Z,95233.66
2023-03-10T22:34:21.693Z,95257.16
2023-03-10T22:39:26.541Z,95281.53
2023-03-10T22:44:34.458Z,95279.38
2023-03-10T22:49:37.831Z,95308.44
2023-03-10T22:54:42.455Z,95321.63
2023-03-10T22:59:46.144Z,95332.25
2023-03-10T23:04:49.794Z,95361.06
2023-03-10T23:09:54.504Z,95359.50
2023-03-10T23:14:57.726Z,95395.06
2023-03-10T23:20:00.976Z,95408.81
2023-03-10T23:25:06.535Z,95426.84
2023-03-10T23:30:11.093Z,95456.91
2023-03-10T23:35:15.653Z,95465.59
2023-03-10T23:40:22.018Z,95488.78
2023-03-10T23:45:27.048Z,95508.72
2023-03-10T23:50:32.493Z,95529.78
2023-03-10T23:55:39.239Z,95547.00
